Terminal Aerodrome Forecast
Issued by NWS Wilmington, OH

Current Version | Previous Version | Text Only | Print | Product List | Glossary Off
Versions: 1 2 3 4 5 6 7 8 9 10 11 12 13 14 15

000
FTUS41 KILN 132300
TAFCMH
TAF
KCMH 132335Z 1400/1424 35008KT P6SM SCT050
     FM140200 02004KT P6SM SKC
     FM140600 05004KT P6SM SKC
     FM141200 09004KT P6SM SCT250
     FM141400 VRB04KT P6SM FEW040 SCT250
     FM142300 00000KT P6SM SKC=

USA.gov is the U.S. government's official web portal to all federal, state and local government web resources and services.